sensor_id;sensor_type;location;lat;lon;timestamp;pressure;altitude;pressure_sealevel;temperature;humidity
69306;BME280;56427;51.580;4.656;2022-10-19T00:01:12;102866.28;;;8.02;100.00
69306;BME280;56427;51.580;4.656;2022-10-19T00:03:38;102868.06;;;8.01;100.00
69306;BME280;56427;51.580;4.656;2022-10-19T00:06:15;102859.13;;;8.08;100.00
69306;BME280;56427;51.580;4.656;2022-10-19T00:08:41;102853.66;;;8.16;100.00
69306;BME280;56427;51.580;4.656;2022-10-19T00:11:07;102852.69;;;8.19;100.00
69306;BME280;56427;51.580;4.656;2022-10-19T00:13:32;102853.94;;;8.31;100.00
69306;BME280;56427;51.580;4.656;2022-10-19T00:15:57;102845.19;;;8.33;100.00
69306;BME280;56427;51.580;4.656;2022-10-19T00:18:23;102848.78;;;8.31;100.00
69306;BME280;56427;51.580;4.656;2022-10-19T00:20:48;102844.50;;;8.29;100.00
69306;BME280;56427;51.580;4.656;2022-10-19T00:23:13;102849.91;;;8.23;100.00
69306;BME280;56427;51.580;4.656;2022-10-19T00:25:39;102852.38;;;8.26;100.00
69306;BME280;56427;51.580;4.656;2022-10-19T00:28:04;102847.06;;;8.29;100.00
69306;BME280;56427;51.580;4.656;2022-10-19T00:30:29;102847.72;;;8.35;100.00
69306;BME280;56427;51.580;4.656;2022-10-19T00:32:55;102845.13;;;8.14;100.00
69306;BME280;56427;51.580;4.656;2022-10-19T00:35:20;102840.78;;;8.35;100.00
69306;BME280;56427;51.580;4.656;2022-10-19T00:37:45;102846.81;;;8.36;100.00
69306;BME280;56427;51.580;4.656;2022-10-19T00:40:11;102841.00;;;8.31;100.00
69306;BME280;56427;51.580;4.656;2022-10-19T00:42:37;102843.38;;;8.15;100.00
69306;BME280;56427;51.580;4.656;2022-10-19T00:45:12;102840.47;;;8.22;100.00
69306;BME280;56427;51.580;4.656;2022-10-19T00:47:37;102839.13;;;8.34;100.00
69306;BME280;56427;51.580;4.656;2022-10-19T00:50:04;102835.63;;;8.35;100.00
69306;BME280;56427;51.580;4.656;2022-10-19T00:52:29;102843.03;;;8.44;100.00
69306;BME280;56427;51.580;4.656;2022-10-19T00:54:56;102846.94;;;8.33;100.00
69306;BME280;56427;51.580;4.656;2022-10-19T00:57:22;102854.56;;;8.15;100.00
69306;BME280;56427;51.580;4.656;2022-10-19T00:59:50;102852.81;;;7.93;100.00
69306;BME280;56427;51.580;4.656;2022-10-19T01:02:16;102849.09;;;8.01;100.00
69306;BME280;56427;51.580;4.656;2022-10-19T01:04:46;102857.00;;;7.98;100.00
69306;BME280;56427;51.580;4.656;2022-10-19T01:07:12;102850.19;;;7.95;100.00
69306;BME280;56427;51.580;4.656;2022-10-19T01:09:38;102847.41;;;8.00;100.00
69306;BME280;56427;51.580;4.656;2022-10-19T01:20:44;102848.38;;;8.19;100.00
69306;BME280;56427;51.580;4.656;2022-10-19T01:23:37;102842.91;;;8.05;100.00
69306;BME280;56427;51.580;4.656;2022-10-19T01:37:06;102816.03;;;8.29;100.00
69306;BME280;56427;51.580;4.656;2022-10-19T01:42:29;102816.16;;;8.26;100.00
69306;BME280;56427;51.580;4.656;2022-10-19T01:45:18;102809.97;;;8.31;100.00
69306;BME280;56427;51.580;4.656;2022-10-19T01:47:53;102800.38;;;8.33;100.00
69306;BME280;56427;51.580;4.656;2022-10-19T01:50:23;102803.34;;;8.45;100.00
69306;BME280;56427;51.580;4.656;2022-10-19T01:52:52;102808.59;;;8.42;100.00
69306;BME280;56427;51.580;4.656;2022-10-19T01:55:18;102809.03;;;8.32;100.00
69306;BME280;56427;51.580;4.656;2022-10-19T01:57:51;102805.81;;;8.26;100.00
69306;BME280;56427;51.580;4.656;2022-10-19T02:00:18;102809.69;;;8.37;100.00
69306;BME280;56427;51.580;4.656;2022-10-19T02:02:47;102803.94;;;8.30;100.00
69306;BME280;56427;51.580;4.656;2022-10-19T02:05:16;102813.38;;;8.31;100.00
69306;BME280;56427;51.580;4.656;2022-10-19T02:07:45;102817.22;;;8.22;100.00
69306;BME280;56427;51.580;4.656;2022-10-19T02:10:12;102816.91;;;8.08;100.00
69306;BME280;56427;51.580;4.656;2022-10-19T02:12:38;102814.75;;;8.19;100.00
69306;BME280;56427;51.580;4.656;2022-10-19T02:15:14;102812.28;;;8.16;100.00
69306;BME280;56427;51.580;4.656;2022-10-19T02:17:47;102814.28;;;8.09;100.00
69306;BME280;56427;51.580;4.656;2022-10-19T02:20:14;102817.22;;;8.00;100.00
69306;BME280;56427;51.580;4.656;2022-10-19T02:22:40;102813.75;;;8.01;100.00
69306;BME280;56427;51.580;4.656;2022-10-19T02:25:07;102810.50;;;7.96;100.00
69306;BME280;56427;51.580;4.656;2022-10-19T02:27:34;102809.06;;;7.89;100.00
69306;BME280;56427;51.580;4.656;2022-10-19T02:29:59;102820.63;;;7.80;100.00
69306;BME280;56427;51.580;4.656;2022-10-19T02:32:25;102825.47;;;7.66;100.00
69306;BME280;56427;51.580;4.656;2022-10-19T02:34:51;102823.19;;;7.58;100.00
69306;BME280;56427;51.580;4.656;2022-10-19T02:37:17;102821.69;;;7.52;100.00
69306;BME280;56427;51.580;4.656;2022-10-19T02:39:42;102809.81;;;7.48;100.00
69306;BME280;56427;51.580;4.656;2022-10-19T02:42:11;102811.69;;;7.43;100.00
69306;BME280;56427;51.580;4.656;2022-10-19T02:44:46;102805.41;;;7.50;100.00
69306;BME280;56427;51.580;4.656;2022-10-19T02:47:26;102799.28;;;7.75;100.00
69306;BME280;56427;51.580;4.656;2022-10-19T02:49:53;102792.31;;;7.77;100.00
69306;BME280;56427;51.580;4.656;2022-10-19T02:52:19;102789.66;;;7.79;100.00
69306;BME280;56427;51.580;4.656;2022-10-19T02:54:44;102790.19;;;7.87;100.00
69306;BME280;56427;51.580;4.656;2022-10-19T02:57:16;102781.38;;;7.91;100.00
69306;BME280;56427;51.580;4.656;2022-10-19T02:59:42;102776.09;;;7.94;100.00
69306;BME280;56427;51.580;4.656;2022-10-19T03:02:07;102773.44;;;7.75;100.00
69306;BME280;56427;51.580;4.656;2022-10-19T03:04:33;102767.84;;;7.64;100.00
69306;BME280;56427;51.580;4.656;2022-10-19T03:06:58;102766.81;;;7.68;100.00
69306;BME280;56427;51.580;4.656;2022-10-19T03:09:23;102764.41;;;7.85;100.00
69306;BME280;56427;51.580;4.656;2022-10-19T03:11:49;102769.44;;;7.88;100.00
69306;BME280;56427;51.580;4.656;2022-10-19T03:14:14;102768.31;;;7.73;100.00
69306;BME280;56427;51.580;4.656;2022-10-19T03:16:39;102777.41;;;7.62;100.00
69306;BME280;56427;51.580;4.656;2022-10-19T03:19:05;102770.44;;;7.64;100.00
69306;BME280;56427;51.580;4.656;2022-10-19T03:21:32;102763.56;;;7.63;100.00
69306;BME280;56427;51.580;4.656;2022-10-19T03:23:59;102765.09;;;7.68;100.00
69306;BME280;56427;51.580;4.656;2022-10-19T03:26:25;102769.13;;;7.53;100.00
69306;BME280;56427;51.580;4.656;2022-10-19T03:28:50;102770.84;;;7.31;100.00
69306;BME280;56427;51.580;4.656;2022-10-19T03:31:15;102769.16;;;7.30;100.00
69306;BME280;56427;51.580;4.656;2022-10-19T03:33:40;102764.53;;;7.38;100.00
69306;BME280;56427;51.580;4.656;2022-10-19T03:36:22;102763.22;;;7.50;100.00
69306;BME280;56427;51.580;4.656;2022-10-19T03:38:59;102759.25;;;7.63;100.00
69306;BME280;56427;51.580;4.656;2022-10-19T03:41:27;102759.38;;;7.60;100.00
69306;BME280;56427;51.580;4.656;2022-10-19T03:43:53;102768.38;;;7.72;100.00
69306;BME280;56427;51.580;4.656;2022-10-19T03:46:19;102759.72;;;7.51;100.00
69306;BME280;56427;51.580;4.656;2022-10-19T03:48:45;102759.03;;;7.47;100.00
69306;BME280;56427;51.580;4.656;2022-10-19T03:51:13;102752.75;;;7.53;100.00
69306;BME280;56427;51.580;4.656;2022-10-19T03:53:39;102761.38;;;7.53;100.00
69306;BME280;56427;51.580;4.656;2022-10-19T03:56:07;102758.38;;;7.42;100.00
69306;BME280;56427;51.580;4.656;2022-10-19T03:58:36;102757.88;;;7.54;100.00
69306;BME280;56427;51.580;4.656;2022-10-19T04:01:05;102760.47;;;7.32;100.00
69306;BME280;56427;51.580;4.656;2022-10-19T04:03:31;102759.47;;;7.35;100.00
69306;BME280;56427;51.580;4.656;2022-10-19T04:06:04;102752.81;;;7.51;100.00
69306;BME280;56427;51.580;4.656;2022-10-19T04:08:30;102755.28;;;7.54;100.00
69306;BME280;56427;51.580;4.656;2022-10-19T04:11:21;102749.47;;;7.49;100.00
69306;BME280;56427;51.580;4.656;2022-10-19T04:13:49;102751.22;;;7.49;100.00
69306;BME280;56427;51.580;4.656;2022-10-19T04:16:15;102754.38;;;7.55;100.00
69306;BME280;56427;51.580;4.656;2022-10-19T04:18:41;102749.75;;;7.42;100.00
69306;BME280;56427;51.580;4.656;2022-10-19T04:21:19;102749.56;;;7.46;100.00
69306;BME280;56427;51.580;4.656;2022-10-19T04:23:45;102753.31;;;7.39;100.00
69306;BME280;56427;51.580;4.656;2022-10-19T04:26:11;102761.28;;;7.33;100.00
69306;BME280;56427;51.580;4.656;2022-10-19T04:28:36;102760.44;;;7.54;100.00
69306;BME280;56427;51.580;4.656;2022-10-19T04:31:03;102765.06;;;7.24;100.00
69306;BME280;56427;51.580;4.656;2022-10-19T04:33:28;102768.81;;;7.39;100.00
69306;BME280;56427;51.580;4.656;2022-10-19T04:36:01;102775.34;;;7.26;100.00
69306;BME280;56427;51.580;4.656;2022-10-19T04:38:27;102780.69;;;7.21;100.00
69306;BME280;56427;51.580;4.656;2022-10-19T04:40:54;102772.94;;;7.21;100.00
69306;BME280;56427;51.580;4.656;2022-10-19T04:43:20;102777.56;;;7.35;100.00
69306;BME280;56427;51.580;4.656;2022-10-19T04:45:46;102763.22;;;7.50;100.00
69306;BME280;56427;51.580;4.656;2022-10-19T04:48:11;102751.81;;;7.55;100.00
69306;BME280;56427;51.580;4.656;2022-10-19T04:50:36;102758.66;;;7.34;100.00
69306;BME280;56427;51.580;4.656;2022-10-19T04:53:01;102755.00;;;7.40;100.00
69306;BME280;56427;51.580;4.656;2022-10-19T04:55:27;102748.44;;;7.53;100.00
69306;BME280;56427;51.580;4.656;2022-10-19T04:57:52;102744.59;;;7.42;100.00
69306;BME280;56427;51.580;4.656;2022-10-19T05:00:18;102736.72;;;7.45;100.00
69306;BME280;56427;51.580;4.656;2022-10-19T05:02:44;102725.72;;;7.40;100.00
69306;BME280;56427;51.580;4.656;2022-10-19T05:05:10;102741.81;;;7.46;100.00
69306;BME280;56427;51.580;4.656;2022-10-19T05:07:36;102734.72;;;7.51;100.00
69306;BME280;56427;51.580;4.656;2022-10-19T05:10:01;102733.19;;;7.47;100.00
69306;BME280;56427;51.580;4.656;2022-10-19T05:12:27;102743.03;;;7.37;100.00
69306;BME280;56427;51.580;4.656;2022-10-19T05:14:52;102732.28;;;7.48;100.00
69306;BME280;56427;51.580;4.656;2022-10-19T05:17:17;102728.19;;;7.43;100.00
69306;BME280;56427;51.580;4.656;2022-10-19T05:19:43;102728.13;;;7.44;100.00
69306;BME280;56427;51.580;4.656;2022-10-19T05:22:08;102730.88;;;7.40;100.00
69306;BME280;56427;51.580;4.656;2022-10-19T05:24:33;102731.34;;;7.29;100.00
69306;BME280;56427;51.580;4.656;2022-10-19T05:26:59;102740.31;;;7.18;100.00
69306;BME280;56427;51.580;4.656;2022-10-19T05:29:24;102734.84;;;7.04;100.00
69306;BME280;56427;51.580;4.656;2022-10-19T05:31:49;102732.75;;;7.14;100.00
69306;BME280;56427;51.580;4.656;2022-10-19T05:34:15;102737.66;;;7.20;100.00
69306;BME280;56427;51.580;4.656;2022-10-19T05:36:40;102730.84;;;7.19;100.00
69306;BME280;56427;51.580;4.656;2022-10-19T05:39:11;102730.91;;;7.17;100.00
69306;BME280;56427;51.580;4.656;2022-10-19T05:41:36;102727.22;;;7.01;100.00
69306;BME280;56427;51.580;4.656;2022-10-19T05:44:02;102722.94;;;7.00;100.00
69306;BME280;56427;51.580;4.656;2022-10-19T05:46:29;102718.75;;;7.19;100.00
69306;BME280;56427;51.580;4.656;2022-10-19T05:48:56;102707.63;;;6.95;100.00
69306;BME280;56427;51.580;4.656;2022-10-19T05:51:23;102714.13;;;7.06;100.00
69306;BME280;56427;51.580;4.656;2022-10-19T05:53:49;102719.25;;;7.07;100.00
69306;BME280;56427;51.580;4.656;2022-10-19T05:56:19;102711.22;;;6.91;100.00
69306;BME280;56427;51.580;4.656;2022-10-19T05:58:46;102716.72;;;7.06;100.00
69306;BME280;56427;51.580;4.656;2022-10-19T06:01:12;102716.34;;;6.93;100.00
69306;BME280;56427;51.580;4.656;2022-10-19T06:03:38;102710.81;;;7.02;100.00
69306;BME280;56427;51.580;4.656;2022-10-19T06:06:05;102713.09;;;7.10;100.00
69306;BME280;56427;51.580;4.656;2022-10-19T06:08:31;102705.47;;;7.07;100.00
69306;BME280;56427;51.580;4.656;2022-10-19T06:11:09;102704.75;;;7.03;100.00
69306;BME280;56427;51.580;4.656;2022-10-19T06:13:35;102710.25;;;6.94;100.00
69306;BME280;56427;51.580;4.656;2022-10-19T06:16:01;102700.75;;;6.96;100.00
69306;BME280;56427;51.580;4.656;2022-10-19T06:18:27;102703.31;;;6.96;100.00
69306;BME280;56427;51.580;4.656;2022-10-19T06:20:53;102705.25;;;6.91;100.00
69306;BME280;56427;51.580;4.656;2022-10-19T06:23:18;102708.03;;;6.85;100.00
69306;BME280;56427;51.580;4.656;2022-10-19T06:25:43;102708.22;;;7.02;100.00
69306;BME280;56427;51.580;4.656;2022-10-19T06:28:09;102700.47;;;7.02;100.00
69306;BME280;56427;51.580;4.656;2022-10-19T06:30:39;102708.00;;;7.08;100.00
69306;BME280;56427;51.580;4.656;2022-10-19T06:33:05;102711.47;;;6.85;100.00
69306;BME280;56427;51.580;4.656;2022-10-19T06:35:30;102721.13;;;7.02;100.00
69306;BME280;56427;51.580;4.656;2022-10-19T06:37:56;102722.50;;;6.89;100.00
69306;BME280;56427;51.580;4.656;2022-10-19T06:40:22;102728.03;;;6.79;100.00
69306;BME280;56427;51.580;4.656;2022-10-19T06:42:48;102729.06;;;6.74;100.00
69306;BME280;56427;51.580;4.656;2022-10-19T06:45:13;102721.50;;;6.93;100.00
69306;BME280;56427;51.580;4.656;2022-10-19T06:47:39;102725.19;;;7.09;100.00
69306;BME280;56427;51.580;4.656;2022-10-19T06:50:05;102732.22;;;7.28;100.00
69306;BME280;56427;51.580;4.656;2022-10-19T06:52:31;102724.28;;;7.32;100.00
69306;BME280;56427;51.580;4.656;2022-10-19T06:54:57;102722.91;;;7.46;100.00
69306;BME280;56427;51.580;4.656;2022-10-19T06:57:22;102726.16;;;7.51;100.00
69306;BME280;56427;51.580;4.656;2022-10-19T06:59:47;102725.91;;;7.57;100.00
69306;BME280;56427;51.580;4.656;2022-10-19T07:02:13;102724.81;;;7.63;100.00
69306;BME280;56427;51.580;4.656;2022-10-19T07:04:38;102725.13;;;7.55;100.00
69306;BME280;56427;51.580;4.656;2022-10-19T07:07:03;102724.25;;;7.77;100.00
69306;BME280;56427;51.580;4.656;2022-10-19T07:09:28;102718.19;;;7.98;100.00
69306;BME280;56427;51.580;4.656;2022-10-19T07:11:54;102723.72;;;8.30;100.00
69306;BME280;56427;51.580;4.656;2022-10-19T07:14:19;102722.06;;;8.50;100.00
69306;BME280;56427;51.580;4.656;2022-10-19T07:16:44;102714.81;;;8.37;100.00
69306;BME280;56427;51.580;4.656;2022-10-19T07:19:10;102710.53;;;8.76;100.00
69306;BME280;56427;51.580;4.656;2022-10-19T07:21:37;102707.97;;;9.31;100.00
69306;BME280;56427;51.580;4.656;2022-10-19T07:24:06;102705.34;;;9.68;100.00
69306;BME280;56427;51.580;4.656;2022-10-19T07:26:32;102692.59;;;9.63;100.00
69306;BME280;56427;51.580;4.656;2022-10-19T07:28:58;102689.72;;;9.69;100.00
69306;BME280;56427;51.580;4.656;2022-10-19T07:31:26;102679.34;;;9.69;100.00
69306;BME280;56427;51.580;4.656;2022-10-19T07:33:53;102688.47;;;10.27;100.00
69306;BME280;56427;51.580;4.656;2022-10-19T07:36:18;102681.31;;;10.32;100.00
69306;BME280;56427;51.580;4.656;2022-10-19T07:38:44;102672.66;;;10.49;100.00
69306;BME280;56427;51.580;4.656;2022-10-19T07:41:12;102675.09;;;10.53;100.00
69306;BME280;56427;51.580;4.656;2022-10-19T07:43:39;102672.34;;;10.88;100.00
69306;BME280;56427;51.580;4.656;2022-10-19T07:46:16;102679.19;;;10.89;100.00
69306;BME280;56427;51.580;4.656;2022-10-19T07:48:42;102680.00;;;11.21;100.00
69306;BME280;56427;51.580;4.656;2022-10-19T07:51:10;102673.16;;;11.04;100.00
69306;BME280;56427;51.580;4.656;2022-10-19T07:53:36;102669.34;;;11.26;100.00
69306;BME280;56427;51.580;4.656;2022-10-19T07:56:03;102659.22;;;11.21;100.00
69306;BME280;56427;51.580;4.656;2022-10-19T07:58:29;102649.97;;;11.31;100.00
69306;BME280;56427;51.580;4.656;2022-10-19T08:01:06;102644.34;;;11.09;100.00
69306;BME280;56427;51.580;4.656;2022-10-19T08:03:33;102637.09;;;11.44;100.00
69306;BME280;56427;51.580;4.656;2022-10-19T08:06:04;102633.78;;;11.26;100.00
69306;BME280;56427;51.580;4.656;2022-10-19T08:08:30;102629.16;;;11.31;100.00
69306;BME280;56427;51.580;4.656;2022-10-19T08:10:56;102624.50;;;11.52;100.00
69306;BME280;56427;51.580;4.656;2022-10-19T08:13:22;102626.66;;;11.60;100.00
69306;BME280;56427;51.580;4.656;2022-10-19T08:15:47;102633.25;;;11.66;100.00
69306;BME280;56427;51.580;4.656;2022-10-19T08:18:13;102639.81;;;12.02;100.00
69306;BME280;56427;51.580;4.656;2022-10-19T08:20:42;102639.63;;;12.05;100.00
69306;BME280;56427;51.580;4.656;2022-10-19T08:23:08;102633.53;;;12.62;100.00
69306;BME280;56427;51.580;4.656;2022-10-19T08:25:33;102633.00;;;12.28;100.00
69306;BME280;56427;51.580;4.656;2022-10-19T08:27:59;102629.13;;;12.21;100.00
69306;BME280;56427;51.580;4.656;2022-10-19T08:30:24;102634.00;;;12.40;100.00
69306;BME280;56427;51.580;4.656;2022-10-19T08:32:49;102617.75;;;12.36;100.00
69306;BME280;56427;51.580;4.656;2022-10-19T08:35:14;102643.22;;;12.45;100.00
69306;BME280;56427;51.580;4.656;2022-10-19T08:37:40;102639.31;;;13.07;100.00
69306;BME280;56427;51.580;4.656;2022-10-19T08:40:12;102645.03;;;12.72;100.00
69306;BME280;56427;51.580;4.656;2022-10-19T08:45:26;102648.91;;;13.06;100.00
69306;BME280;56427;51.580;4.656;2022-10-19T08:48:24;102655.28;;;13.42;100.00
69306;BME280;56427;51.580;4.656;2022-10-19T08:50:50;102660.91;;;14.39;100.00
69306;BME280;56427;51.580;4.656;2022-10-19T08:53:29;102666.78;;;13.66;100.00
69306;BME280;56427;51.580;4.656;2022-10-19T08:59:11;102655.53;;;13.91;100.00
69306;BME280;56427;51.580;4.656;2022-10-19T09:01:58;102653.63;;;13.93;100.00
69306;BME280;56427;51.580;4.656;2022-10-19T09:09:22;102657.28;;;13.65;100.00
69306;BME280;56427;51.580;4.656;2022-10-19T09:11:49;102652.03;;;13.12;100.00
69306;BME280;56427;51.580;4.656;2022-10-19T09:14:52;102645.69;;;13.43;100.00
69306;BME280;56427;51.580;4.656;2022-10-19T09:17:20;102644.25;;;13.65;100.00
69306;BME280;56427;51.580;4.656;2022-10-19T09:19:46;102630.28;;;13.25;100.00
69306;BME280;56427;51.580;4.656;2022-10-19T09:22:25;102626.81;;;13.12;100.00
69306;BME280;56427;51.580;4.656;2022-10-19T09:24:59;102629.81;;;13.33;100.00
69306;BME280;56427;51.580;4.656;2022-10-19T09:27:38;102629.06;;;12.91;100.00
69306;BME280;56427;51.580;4.656;2022-10-19T09:30:24;102621.72;;;13.64;100.00
69306;BME280;56427;51.580;4.656;2022-10-19T09:32:58;102625.69;;;13.82;100.00
69306;BME280;56427;51.580;4.656;2022-10-19T09:35:40;102632.75;;;13.54;100.00
69306;BME280;56427;51.580;4.656;2022-10-19T09:38:09;102623.16;;;14.06;100.00
69306;BME280;56427;51.580;4.656;2022-10-19T09:40:36;102617.84;;;13.82;100.00
69306;BME280;56427;51.580;4.656;2022-10-19T09:43:05;102620.16;;;13.74;100.00
69306;BME280;56427;51.580;4.656;2022-10-19T09:46:01;102618.91;;;13.54;100.00
69306;BME280;56427;51.580;4.656;2022-10-19T09:48:34;102616.91;;;13.70;100.00
69306;BME280;56427;51.580;4.656;2022-10-19T09:51:10;102615.13;;;13.84;100.00
69306;BME280;56427;51.580;4.656;2022-10-19T09:53:35;102602.69;;;13.61;100.00
69306;BME280;56427;51.580;4.656;2022-10-19T09:56:05;102580.69;;;13.40;100.00
69306;BME280;56427;51.580;4.656;2022-10-19T09:58:32;102587.69;;;13.39;100.00
69306;BME280;56427;51.580;4.656;2022-10-19T10:00:58;102581.00;;;13.61;100.00
69306;BME280;56427;51.580;4.656;2022-10-19T10:03:36;102573.06;;;13.62;100.00
69306;BME280;56427;51.580;4.656;2022-10-19T10:06:06;102558.06;;;13.40;100.00
69306;BME280;56427;51.580;4.656;2022-10-19T10:08:35;102566.53;;;13.17;100.00
69306;BME280;56427;51.580;4.656;2022-10-19T10:11:37;102560.59;;;13.02;100.00
69306;BME280;56427;51.580;4.656;2022-10-19T10:14:14;102549.69;;;13.35;100.00
69306;BME280;56427;51.580;4.656;2022-10-19T10:16:43;102555.16;;;13.05;100.00
69306;BME280;56427;51.580;4.656;2022-10-19T10:19:14;102539.59;;;12.91;100.00
69306;BME280;56427;51.580;4.656;2022-10-19T10:21:49;102544.94;;;13.02;100.00
69306;BME280;56427;51.580;4.656;2022-10-19T10:24:19;102554.78;;;13.24;100.00
69306;BME280;56427;51.580;4.656;2022-10-19T10:26:48;102553.22;;;13.21;100.00
69306;BME280;56427;51.580;4.656;2022-10-19T10:29:22;102545.19;;;13.24;100.00
69306;BME280;56427;51.580;4.656;2022-10-19T10:31:51;102540.75;;;13.39;100.00
69306;BME280;56427;51.580;4.656;2022-10-19T10:37:34;102538.97;;;13.40;100.00
69306;BME280;56427;51.580;4.656;2022-10-19T10:40:03;102539.28;;;13.61;100.00
69306;BME280;56427;51.580;4.656;2022-10-19T10:42:49;102534.16;;;13.47;100.00
69306;BME280;56427;51.580;4.656;2022-10-19T10:45:19;102521.59;;;13.77;100.00
69306;BME280;56427;51.580;4.656;2022-10-19T10:47:47;102526.19;;;13.87;100.00
69306;BME280;56427;51.580;4.656;2022-10-19T10:50:19;102528.13;;;13.96;100.00
69306;BME280;56427;51.580;4.656;2022-10-19T10:52:58;102515.72;;;14.24;100.00
69306;BME280;56427;51.580;4.656;2022-10-19T10:55:23;102512.53;;;14.07;100.00
69306;BME280;56427;51.580;4.656;2022-10-19T10:57:54;102514.44;;;14.78;100.00
69306;BME280;56427;51.580;4.656;2022-10-19T11:00:25;102518.09;;;14.75;100.00
69306;BME280;56427;51.580;4.656;2022-10-19T11:03:15;102511.31;;;14.24;100.00
69306;BME280;56427;51.580;4.656;2022-10-19T11:05:46;102505.78;;;14.05;100.00
69306;BME280;56427;51.580;4.656;2022-10-19T11:08:25;102502.28;;;14.17;100.00
69306;BME280;56427;51.580;4.656;2022-10-19T11:10:59;102502.00;;;14.33;100.00
69306;BME280;56427;51.580;4.656;2022-10-19T11:13:42;102505.66;;;14.79;100.00
69306;BME280;56427;51.580;4.656;2022-10-19T11:16:20;102491.50;;;14.70;100.00
69306;BME280;56427;51.580;4.656;2022-10-19T11:18:52;102481.50;;;14.40;100.00
69306;BME280;56427;51.580;4.656;2022-10-19T11:21:24;102480.09;;;14.71;100.00
69306;BME280;56427;51.580;4.656;2022-10-19T11:24:26;102468.47;;;14.86;100.00
69306;BME280;56427;51.580;4.656;2022-10-19T11:32:39;102456.47;;;14.72;100.00
69306;BME280;56427;51.580;4.656;2022-10-19T11:35:28;102459.81;;;14.50;100.00
69306;BME280;56427;51.580;4.656;2022-10-19T11:38:27;102445.94;;;14.97;100.00
69306;BME280;56427;51.580;4.656;2022-10-19T11:41:06;102433.91;;;14.83;100.00
69306;BME280;56427;51.580;4.656;2022-10-19T11:46:41;102441.53;;;15.54;100.00
69306;BME280;56427;51.580;4.656;2022-10-19T11:57:22;102411.69;;;15.00;100.00
69306;BME280;56427;51.580;4.656;2022-10-19T12:00:07;102406.09;;;14.82;100.00
69306;BME280;56427;51.580;4.656;2022-10-19T12:06:04;102392.81;;;15.30;100.00
69306;BME280;56427;51.580;4.656;2022-10-19T12:14:05;102377.81;;;15.32;100.00
69306;BME280;56427;51.580;4.656;2022-10-19T12:16:45;102377.47;;;15.25;100.00
69306;BME280;56427;51.580;4.656;2022-10-19T12:19:26;102372.47;;;15.34;100.00
69306;BME280;56427;51.580;4.656;2022-10-19T12:21:58;102372.47;;;15.34;100.00
69306;BME280;56427;51.580;4.656;2022-10-19T12:24:25;102371.47;;;15.57;100.00
69306;BME280;56427;51.580;4.656;2022-10-19T12:26:53;102356.69;;;15.68;100.00
69306;BME280;56427;51.580;4.656;2022-10-19T12:29:27;102346.44;;;16.08;100.00
69306;BME280;56427;51.580;4.656;2022-10-19T12:31:55;102348.03;;;15.99;100.00
69306;BME280;56427;51.580;4.656;2022-10-19T12:37:26;102344.47;;;16.00;100.00
69306;BME280;56427;51.580;4.656;2022-10-19T12:40:04;102336.97;;;15.96;100.00
69306;BME280;56427;51.580;4.656;2022-10-19T12:43:11;102336.22;;;15.73;100.00
69306;BME280;56427;51.580;4.656;2022-10-19T12:53:26;102329.44;;;15.26;100.00
69306;BME280;56427;51.580;4.656;2022-10-19T12:56:07;102313.88;;;15.25;100.00
69306;BME280;56427;51.580;4.656;2022-10-19T12:58:44;102309.59;;;15.13;100.00
69306;BME280;56427;51.580;4.656;2022-10-19T13:01:23;102304.72;;;15.19;100.00
69306;BME280;56427;51.580;4.656;2022-10-19T13:04:04;102298.91;;;15.16;100.00
69306;BME280;56427;51.580;4.656;2022-10-19T13:06:33;102291.81;;;15.50;100.00
69306;BME280;56427;51.580;4.656;2022-10-19T13:09:01;102295.88;;;15.43;100.00
69306;BME280;56427;51.580;4.656;2022-10-19T13:11:28;102296.59;;;15.45;100.00
69306;BME280;56427;51.580;4.656;2022-10-19T13:16:54;102283.00;;;15.83;100.00
69306;BME280;56427;51.580;4.656;2022-10-19T13:19:21;102281.50;;;16.02;100.00
69306;BME280;56427;51.580;4.656;2022-10-19T13:29:25;102273.44;;;15.94;100.00
69306;BME280;56427;51.580;4.656;2022-10-19T13:31:50;102263.41;;;15.78;100.00
69306;BME280;56427;51.580;4.656;2022-10-19T13:34:15;102261.50;;;16.01;99.80
69306;BME280;56427;51.580;4.656;2022-10-19T13:36:58;102260.94;;;15.97;99.14
69306;BME280;56427;51.580;4.656;2022-10-19T13:39:40;102270.22;;;15.90;97.76
69306;BME280;56427;51.580;4.656;2022-10-19T13:42:22;102261.81;;;16.08;100.00
69306;BME280;56427;51.580;4.656;2022-10-19T13:44:49;102257.88;;;16.23;98.18
69306;BME280;56427;51.580;4.656;2022-10-19T13:47:28;102248.97;;;16.05;98.38
69306;BME280;56427;51.580;4.656;2022-10-19T13:50:13;102242.09;;;16.04;99.72
69306;BME280;56427;51.580;4.656;2022-10-19T13:52:52;102241.53;;;15.79;100.00
69306;BME280;56427;51.580;4.656;2022-10-19T14:12:40;102221.31;;;15.70;100.00
69306;BME280;56427;51.580;4.656;2022-10-19T14:15:33;102218.28;;;15.86;100.00
69306;BME280;56427;51.580;4.656;2022-10-19T14:17:59;102219.72;;;15.99;100.00
69306;BME280;56427;51.580;4.656;2022-10-19T14:20:35;102222.34;;;15.99;100.00
69306;BME280;56427;51.580;4.656;2022-10-19T14:23:18;102219.22;;;15.85;100.00
69306;BME280;56427;51.580;4.656;2022-10-19T14:25:56;102213.97;;;15.63;100.00
69306;BME280;56427;51.580;4.656;2022-10-19T14:28:23;102200.69;;;15.55;100.00
69306;BME280;56427;51.580;4.656;2022-10-19T14:30:59;102205.72;;;15.68;100.00
69306;BME280;56427;51.580;4.656;2022-10-19T14:33:26;102203.91;;;15.48;100.00
69306;BME280;56427;51.580;4.656;2022-10-19T14:35:52;102196.88;;;15.27;100.00
69306;BME280;56427;51.580;4.656;2022-10-19T14:38:23;102200.69;;;15.23;100.00
69306;BME280;56427;51.580;4.656;2022-10-19T14:40:49;102194.75;;;15.21;100.00